createdAt,value
2023-01-27T02:16:08.467Z,-2.72
2023-01-27T02:17:14.841Z,-2.70
2023-01-27T02:18:18.773Z,-2.71
2023-01-27T02:19:41.786Z,-2.70
2023-01-27T02:20:48.279Z,-2.70
2023-01-27T02:21:55.626Z,-2.74
2023-01-27T02:23:17.433Z,-2.74
2023-01-27T02:24:24.091Z,-2.77
2023-01-27T02:25:37.058Z,-2.77
2023-01-27T02:26:43.329Z,-2.74
2023-01-27T02:27:48.464Z,-2.73
2023-01-27T02:29:04.141Z,-2.75
2023-01-27T02:30:08.867Z,-2.75
2023-01-27T02:31:12.931Z,-2.74
2023-01-27T02:32:26.034Z,-2.70
2023-01-27T02:33:29.961Z,-2.68
2023-01-27T02:34:36.864Z,-2.69
2023-01-27T02:35:46.251Z,-2.69
2023-01-27T02:36:53.211Z,-2.70
2023-01-27T02:37:57.881Z,-2.67
2023-01-27T02:39:05.900Z,-2.65
2023-01-27T02:40:12.879Z,-2.65
2023-01-27T02:46:35.666Z,-2.81
2023-01-27T02:47:39.641Z,-2.83
2023-01-27T02:48:43.902Z,-2.84
2023-01-27T02:49:47.840Z,-2.90
2023-01-27T02:50:51.977Z,-2.86
2023-01-27T02:51:55.980Z,-2.85
2023-01-27T02:52:59.936Z,-2.86
2023-01-27T02:54:04.066Z,-2.84
2023-01-27T02:55:08.687Z,-2.84
2023-01-27T02:56:12.877Z,-2.84
2023-01-27T02:57:16.956Z,-2.85
2023-01-27T02:58:20.980Z,-2.88
2023-01-27T02:59:24.956Z,-2.83
2023-01-27T03:00:29.001Z,-2.83
2023-01-27T03:01:33.120Z,-2.82
2023-01-27T03:02:37.086Z,-2.81
2023-01-27T03:03:41.234Z,-2.78
2023-01-27T03:04:45.220Z,-2.79
2023-01-27T03:05:49.170Z,-2.77
2023-01-27T03:06:53.217Z,-2.77
2023-01-27T03:07:57.283Z,-2.77
2023-01-27T03:09:02.844Z,-2.73
2023-01-27T03:10:07.353Z,-2.73
2023-01-27T03:11:13.259Z,-2.74
2023-01-27T03:12:17.309Z,-2.70
2023-01-27T03:13:24.732Z,-2.70
2023-01-27T03:14:31.857Z,-2.68
2023-01-27T03:15:41.439Z,-2.69
2023-01-27T03:16:42.185Z,-2.68
2023-01-27T03:17:46.232Z,-2.69
2023-01-27T03:18:51.548Z,-2.69
2023-01-27T03:19:55.591Z,-2.69
2023-01-27T03:21:04.688Z,-2.67
2023-01-27T03:22:08.634Z,-2.66
2023-01-27T03:23:13.692Z,-2.66
2023-01-27T03:24:20.590Z,-2.66
2023-01-27T03:25:28.624Z,-2.69
2023-01-27T03:26:32.575Z,-2.69
2023-01-27T03:27:38.142Z,-2.64
2023-01-27T03:28:44.079Z,-2.65
2023-01-27T03:29:54.566Z,-2.64
2023-01-27T03:31:19.989Z,-2.64
2023-01-27T03:32:22.005Z,-2.64
2023-01-27T03:33:33.875Z,-2.63
2023-01-27T03:34:36.416Z,-2.62
2023-01-27T03:36:01.131Z,-2.61
2023-01-27T03:37:07.177Z,-2.60
2023-01-27T03:38:16.670Z,-2.61
2023-01-27T03:39:25.521Z,-2.59
2023-01-27T03:40:28.359Z,-2.59
2023-01-27T03:41:32.438Z,-2.56
2023-01-27T03:42:36.495Z,-2.55
2023-01-27T03:43:40.540Z,-2.56
2023-01-27T03:44:44.522Z,-2.57
2023-01-27T03:45:53.440Z,-2.57
2023-01-27T03:46:58.420Z,-2.57
2023-01-27T03:48:04.021Z,-2.59
2023-01-27T03:49:08.233Z,-2.59
2023-01-27T03:50:14.053Z,-2.62
2023-01-27T03:51:19.375Z,-2.61
2023-01-27T03:52:24.938Z,-2.61
2023-01-27T03:53:30.603Z,-2.63
2023-01-27T03:54:34.572Z,-2.62
2023-01-27T03:55:40.534Z,-2.62
2023-01-27T03:56:46.129Z,-2.61
2023-01-27T03:57:49.979Z,-2.61
2023-01-27T03:58:53.832Z,-2.57
2023-01-27T03:59:57.777Z,-2.59
2023-01-27T04:01:04.748Z,-2.58
2023-01-27T04:02:10.033Z,-2.57
2023-01-27T04:03:14.049Z,-2.57
2023-01-27T04:04:17.895Z,-2.56
2023-01-27T04:05:21.828Z,-2.56
2023-01-27T04:06:31.085Z,-2.56
2023-01-27T04:07:38.414Z,-2.57
2023-01-27T04:08:45.368Z,-2.57
2023-01-27T04:09:49.327Z,-2.57
2023-01-27T04:10:57.530Z,-2.55
2023-01-27T04:12:04.119Z,-2.54
2023-01-27T04:13:07.975Z,-2.53
2023-01-27T04:14:13.348Z,-2.56
2023-01-27T04:15:17.394Z,-2.55
2023-01-27T04:16:21.380Z,-2.56
2023-01-27T04:17:25.311Z,-2.57
2023-01-27T04:18:29.157Z,-2.59
2023-01-27T04:19:33.953Z,-2.59
2023-01-27T04:20:37.964Z,-2.59
2023-01-27T04:21:42.306Z,-2.59
2023-01-27T04:22:47.463Z,-2.61
2023-01-27T04:23:51.923Z,-2.59
2023-01-27T04:24:55.877Z,-2.58
2023-01-27T04:25:59.874Z,-2.59
2023-01-27T04:27:06.841Z,-2.59
2023-01-27T04:28:12.378Z,-2.58
2023-01-27T04:29:17.895Z,-2.60
2023-01-27T04:30:23.434Z,-2.60
2023-01-27T04:31:29.173Z,-2.58
2023-01-27T04:32:33.244Z,-2.59
2023-01-27T04:33:38.916Z,-2.58
2023-01-27T04:34:43.270Z,-2.57
2023-01-27T04:35:48.513Z,-2.57
2023-01-27T04:36:52.516Z,-2.56
2023-01-27T04:37:56.428Z,-2.55
2023-01-27T04:39:00.419Z,-2.54
2023-01-27T04:40:04.565Z,-2.54
2023-01-27T04:41:10.255Z,-2.54
2023-01-27T04:42:15.757Z,-2.53
2023-01-27T04:43:21.124Z,-2.54
2023-01-27T04:44:25.552Z,-2.51
2023-01-27T04:45:31.319Z,-2.52
2023-01-27T04:46:35.924Z,-2.51
2023-01-27T04:47:39.874Z,-2.53
2023-01-27T04:48:43.835Z,-2.50
2023-01-27T04:49:47.780Z,-2.50
2023-01-27T04:50:51.796Z,-2.48
2023-01-27T04:51:56.247Z,-2.48
2023-01-27T04:53:01.719Z,-2.48
2023-01-27T04:54:05.856Z,-2.48
2023-01-27T04:55:13.150Z,-2.48
2023-01-27T04:56:31.987Z,-2.49
2023-01-27T04:57:35.947Z,-2.50
2023-01-27T04:58:39.932Z,-2.50
2023-01-27T04:59:47.650Z,-2.50
2023-01-27T05:00:49.587Z,-2.51
2023-01-27T05:01:53.583Z,-2.49
2023-01-27T05:02:57.689Z,-2.49
2023-01-27T05:04:01.711Z,-2.49
2023-01-27T05:05:08.027Z,-2.50
2023-01-27T05:06:12.810Z,-2.52
2023-01-27T05:07:18.410Z,-2.52
2023-01-27T05:08:22.467Z,-2.52
2023-01-27T05:09:26.519Z,-2.54
2023-01-27T05:10:32.503Z,-2.56
2023-01-27T05:11:38.067Z,-2.57
2023-01-27T05:12:43.639Z,-2.57
2023-01-27T05:13:48.356Z,-2.56
2023-01-27T05:14:52.396Z,-2.59
2023-01-27T05:16:22.135Z,-2.57
2023-01-27T05:17:26.524Z,-2.57
2023-01-27T05:18:30.467Z,-2.60
2023-01-27T05:19:34.433Z,-2.59
2023-01-27T05:20:38.473Z,-2.61
2023-01-27T05:21:42.440Z,-2.62
2023-01-27T05:22:46.367Z,-2.61
2023-01-27T05:23:52.056Z,-2.62
2023-01-27T05:24:57.668Z,-2.61
2023-01-27T05:26:22.441Z,-2.59
2023-01-27T05:27:28.015Z,-2.60
2023-01-27T05:28:32.005Z,-2.60
2023-01-27T05:29:37.063Z,-2.78
2023-01-27T05:30:41.258Z,-2.60
2023-01-27T05:31:45.678Z,-2.61
2023-01-27T05:32:51.687Z,-2.61
2023-01-27T05:33:59.192Z,-2.59
2023-01-27T05:35:07.879Z,-2.60
2023-01-27T05:36:15.919Z,-2.60
2023-01-27T05:37:21.652Z,-2.60
2023-01-27T05:38:25.968Z,-2.61
2023-01-27T05:39:30.113Z,-2.68
2023-01-27T05:40:34.172Z,-2.61
2023-01-27T05:41:38.321Z,-2.61
2023-01-27T05:42:43.811Z,-2.62
2023-01-27T05:43:51.640Z,-2.61
2023-01-27T05:44:57.215Z,-2.63
2023-01-27T05:46:07.006Z,-2.63
2023-01-27T05:47:10.997Z,-2.80
2023-01-27T05:48:14.943Z,-2.61
2023-01-27T05:49:20.358Z,-2.61
2023-01-27T05:50:24.429Z,-2.70
2023-01-27T05:51:30.974Z,-2.71
2023-01-27T05:52:34.931Z,-2.66
2023-01-27T05:53:40.517Z,-2.66
2023-01-27T05:54:46.116Z,-2.64
2023-01-27T05:55:50.618Z,-2.67
2023-01-27T05:56:56.231Z,-2.67
2023-01-27T05:58:01.941Z,-2.62
2023-01-27T05:59:05.918Z,-2.62
2023-01-27T06:00:11.008Z,-2.62
2023-01-27T06:01:24.166Z,-2.64
2023-01-27T06:02:28.260Z,-2.68
2023-01-27T06:03:32.221Z,-2.66
2023-01-27T06:04:36.249Z,-2.66
2023-01-27T06:05:41.898Z,-2.65
2023-01-27T06:06:46.170Z,-2.65
2023-01-27T06:07:50.036Z,-2.66
2023-01-27T06:08:54.340Z,-2.65
2023-01-27T06:09:58.350Z,-2.65
2023-01-27T06:11:03.020Z,-2.69
2023-01-27T06:12:07.350Z,-2.69
2023-01-27T06:13:11.753Z,-2.70
2023-01-27T06:14:17.291Z,-2.69
2023-01-27T06:15:21.352Z,-2.71
2023-01-27T06:16:27.140Z,-2.77
2023-01-27T06:17:31.103Z,-2.92
2023-01-27T06:18:37.915Z,-2.75
2023-01-27T06:19:43.817Z,-2.76
2023-01-27T06:20:51.551Z,-2.76
2023-01-27T06:21:57.166Z,-2.71
2023-01-27T06:23:13.651Z,-2.73
2023-01-27T12:41:42.106Z,-1.93
2023-01-27T18:08:25.461Z,-3.22
2023-01-27T18:09:29.682Z,-3.22
2023-01-27T18:10:39.431Z,-3.13
2023-01-27T18:11:55.285Z,-3.09
2023-01-27T18:13:14.393Z,-3.10
2023-01-27T18:14:21.061Z,-3.09
2023-01-27T18:15:39.804Z,-3.09
2023-01-27T18:16:47.228Z,-3.09
2023-01-27T18:18:02.265Z,-3.05
2023-01-27T18:19:21.193Z,-3.05
2023-01-27T18:20:36.473Z,-3.09
2023-01-27T18:21:43.555Z,-3.12
2023-01-27T18:22:48.867Z,-3.08
2023-01-27T18:23:55.342Z,-3.00
2023-01-27T18:25:04.068Z,-2.98
2023-01-27T18:26:29.574Z,-2.95
2023-01-27T18:27:36.880Z,-2.92
2023-01-27T18:28:43.742Z,-2.92
2023-01-27T18:29:50.981Z,-2.97
2023-01-27T18:30:55.483Z,-2.97
2023-01-27T18:32:11.405Z,-2.96
2023-01-27T18:33:16.673Z,-2.93
2023-01-27T18:34:27.060Z,-2.92
2023-01-27T18:35:34.242Z,-2.97
2023-01-27T18:36:40.666Z,-2.96
2023-01-27T18:37:47.889Z,-2.94
2023-01-27T18:38:52.550Z,-2.94
2023-01-27T18:40:00.047Z,-2.91
2023-01-27T18:41:12.520Z,-2.86
2023-01-27T18:42:19.621Z,-2.85
2023-01-27T18:43:23.963Z,-2.83
2023-01-27T18:44:28.311Z,-2.81
2023-01-27T18:45:32.484Z,-2.81
2023-01-27T18:46:38.110Z,-2.84
2023-01-27T18:47:42.447Z,-2.81
2023-01-27T18:48:46.687Z,-2.82
2023-01-27T18:50:08.557Z,-2.80
2023-01-27T18:51:16.608Z,-2.82
2023-01-27T18:52:22.307Z,-2.83
2023-01-27T18:53:26.293Z,-2.79
2023-01-27T18:54:30.432Z,-2.79
2023-01-27T18:55:34.748Z,-2.79
2023-01-27T18:56:38.849Z,-2.82
2023-01-27T18:57:43.760Z,-2.81
2023-01-27T18:58:47.934Z,-2.81
2023-01-27T18:59:52.147Z,-2.81
2023-01-27T19:00:58.767Z,-2.77
2023-01-27T19:02:04.813Z,-2.77
2023-01-27T19:03:15.022Z,-2.77
2023-01-27T19:04:22.294Z,-2.74
2023-01-27T19:05:32.311Z,-2.72
2023-01-27T19:06:38.165Z,-2.71
2023-01-27T19:07:42.231Z,-2.69
2023-01-27T19:08:48.282Z,-2.68
2023-01-27T19:09:52.450Z,-2.68
2023-01-27T19:10:56.568Z,-2.66
2023-01-27T19:12:04.435Z,-2.66
2023-01-27T19:13:10.785Z,-2.60
2023-01-27T19:14:14.961Z,-2.63
2023-01-27T19:15:24.049Z,-2.59
2023-01-27T19:16:28.229Z,-2.57
2023-01-27T19:17:32.708Z,-2.57
2023-01-27T19:18:39.257Z,-2.54
2023-01-27T19:19:43.520Z,-2.55
2023-01-27T19:20:47.676Z,-2.55
2023-01-27T19:21:51.843Z,-2.55
2023-01-27T19:23:01.763Z,-2.58
2023-01-27T19:24:06.042Z,-2.56
2023-01-27T19:25:10.609Z,-2.55
2023-01-27T19:26:18.844Z,-2.58
2023-01-27T19:27:25.496Z,-2.57
2023-01-27T19:28:33.226Z,-2.58
2023-01-27T19:29:37.281Z,-2.55
2023-01-27T19:30:41.586Z,-2.54
2023-01-27T19:31:45.757Z,-2.56
2023-01-27T19:32:52.459Z,-2.55
2023-01-27T19:33:57.799Z,-2.55
2023-01-27T19:35:02.469Z,-2.61
2023-01-27T19:36:27.170Z,-2.59
2023-01-27T19:37:31.211Z,-2.62
2023-01-27T19:38:35.223Z,-2.62
2023-01-27T19:39:39.244Z,-2.65
2023-01-27T19:40:43.429Z,-2.67
2023-01-27T19:41:48.959Z,-2.68
2023-01-27T19:42:53.053Z,-2.68
2023-01-27T19:44:00.604Z,-2.72
2023-01-27T19:45:04.473Z,-2.72
2023-01-27T19:46:17.862Z,-2.74
2023-01-27T19:47:21.691Z,-2.74
2023-01-27T19:48:25.785Z,-2.76
2023-01-27T19:49:31.415Z,-2.77
2023-01-27T19:50:35.479Z,-2.75
2023-01-27T19:51:39.393Z,-2.75
2023-01-27T19:52:43.307Z,-2.75
2023-01-27T19:53:47.650Z,-2.78
2023-01-27T19:54:51.571Z,-2.77
2023-01-27T19:55:58.295Z,-2.79
2023-01-27T19:57:05.812Z,-2.79
2023-01-27T19:58:28.669Z,-2.83
2023-01-27T19:59:32.794Z,-2.80
2023-01-27T20:00:37.783Z,-2.79
2023-01-27T20:01:41.799Z,-2.77
2023-01-27T20:02:45.648Z,-2.82
2023-01-27T20:03:55.770Z,-2.82
2023-01-27T20:05:01.440Z,-2.79
2023-01-27T20:06:17.630Z,-2.79
2023-01-27T20:07:21.619Z,-2.82
2023-01-27T20:08:28.963Z,-2.79
2023-01-27T20:09:33.114Z,-2.79
2023-01-27T20:10:37.047Z,-2.79
2023-01-27T20:11:43.232Z,-2.81
2023-01-27T20:13:01.808Z,-2.81
2023-01-27T20:14:19.620Z,-2.79
2023-01-27T20:15:28.598Z,-2.79
2023-01-27T20:16:33.208Z,-2.79
2023-01-27T20:17:39.822Z,-2.79
2023-01-27T20:18:44.435Z,-2.79
2023-01-27T20:19:48.423Z,-2.79
2023-01-27T20:20:52.430Z,-2.77
2023-01-27T20:21:56.288Z,-2.77
2023-01-27T20:23:00.312Z,-2.77
2023-01-27T20:24:07.691Z,-2.71
2023-01-27T20:25:17.255Z,-2.74
2023-01-27T20:26:22.588Z,-2.79
2023-01-27T20:27:27.701Z,-2.75
2023-01-27T20:28:36.992Z,-2.83
2023-01-27T20:29:41.097Z,-2.83
2023-01-27T20:30:45.302Z,-2.82
2023-01-27T20:31:49.602Z,-2.82
2023-01-27T20:32:56.282Z,-2.83
2023-01-27T20:34:02.139Z,-2.83
2023-01-27T20:35:06.590Z,-2.86
2023-01-27T20:36:13.622Z,-2.84
2023-01-27T20:37:17.890Z,-2.84
2023-01-27T20:38:22.094Z,-2.83
2023-01-27T20:39:28.142Z,-2.83
2023-01-27T20:40:34.460Z,-2.82
2023-01-27T20:41:39.173Z,-2.84
2023-01-27T20:42:43.523Z,-2.84
2023-01-27T20:43:49.176Z,-2.87
2023-01-27T20:44:54.887Z,-2.86
2023-01-27T20:46:07.939Z,-2.88
2023-01-27T20:47:17.185Z,-2.88
2023-01-27T20:48:22.663Z,-2.88
2023-01-27T20:49:26.983Z,-2.92
2023-01-27T20:50:31.340Z,-2.87
2023-01-27T20:51:41.380Z,-2.88
2023-01-27T20:52:44.289Z,-2.87
2023-01-27T20:53:48.340Z,-2.84
2023-01-27T20:54:54.042Z,-2.84
2023-01-27T20:55:59.357Z,-2.91
2023-01-27T20:57:03.569Z,-2.91
2023-01-27T20:58:07.913Z,-2.94
2023-01-27T20:59:12.036Z,-2.97
2023-01-27T21:00:20.824Z,-2.97
2023-01-27T21:01:26.521Z,-3.01
2023-01-27T21:02:30.780Z,-3.02
2023-01-27T21:03:36.652Z,-3.01
2023-01-27T21:04:42.315Z,-2.98
2023-01-27T21:05:46.460Z,-3.00
2023-01-27T21:06:50.601Z,-2.97
2023-01-27T21:07:56.261Z,-2.96
2023-01-27T21:09:02.269Z,-2.95
2023-01-27T21:10:07.735Z,-2.91
2023-01-27T21:11:11.907Z,-2.92
2023-01-27T21:12:16.036Z,-2.91
2023-01-27T21:13:20.569Z,-2.91
2023-01-27T21:14:26.411Z,-2.91
2023-01-27T21:15:32.051Z,-2.92
2023-01-27T21:16:36.285Z,-2.94
2023-01-27T21:17:41.911Z,-2.97
2023-01-27T21:18:46.015Z,-2.96
2023-01-27T21:19:50.181Z,-2.96
2023-01-27T21:20:56.343Z,-2.99
2023-01-27T21:22:02.040Z,-2.99
2023-01-27T21:23:06.504Z,-2.98
2023-01-27T21:24:10.814Z,-2.98
2023-01-27T21:25:15.420Z,-2.96
2023-01-27T21:26:19.934Z,-2.98
2023-01-27T21:27:24.071Z,-2.97
2023-01-27T21:28:29.778Z,-2.97
2023-01-27T21:29:33.976Z,-2.99
2023-01-27T21:30:38.099Z,-2.98
2023-01-27T21:31:42.280Z,-2.97
2023-01-27T21:32:46.369Z,-3.01
2023-01-27T21:33:51.048Z,-2.99
2023-01-27T21:34:55.364Z,-2.98
2023-01-27T21:36:03.037Z,-2.98
2023-01-27T21:37:12.726Z,-2.96
2023-01-27T21:38:15.230Z,-3.03
2023-01-27T21:39:19.423Z,-3.02
2023-01-27T21:40:25.159Z,-3.04
2023-01-27T21:41:31.029Z,-3.04
2023-01-27T21:42:35.072Z,-3.04
2023-01-27T21:43:39.073Z,-3.06
2023-01-27T21:44:42.996Z,-3.06
2023-01-27T21:45:46.936Z,-3.06
2023-01-27T21:46:51.267Z,-3.08
2023-01-27T21:47:55.218Z,-3.22
2023-01-27T21:48:59.205Z,-3.17
2023-01-27T21:50:03.321Z,-3.16
2023-01-27T21:51:07.439Z,-3.15
2023-01-27T21:52:11.455Z,-3.16
2023-01-27T21:53:15.375Z,-3.15
2023-01-27T21:54:21.129Z,-3.15
2023-01-27T21:55:29.932Z,-3.15
2023-01-27T21:56:33.927Z,-3.10
2023-01-27T21:57:39.555Z,-3.14
2023-01-27T21:58:43.503Z,-3.13
2023-01-27T21:59:47.430Z,-3.10
2023-01-27T22:00:51.388Z,-3.10
